createdAt,value
2019-02-27T00:02:45.181Z,21.90
2019-02-27T00:07:48.326Z,23.00
2019-02-27T00:12:52.014Z,21.42
2019-02-27T00:17:55.680Z,23.77
2019-02-27T00:22:58.702Z,19.90
2019-02-27T00:28:01.803Z,19.07
2019-02-27T00:33:05.376Z,18.87
2019-02-27T00:38:08.577Z,18.80
2019-02-27T00:43:28.434Z,16.37
2019-02-27T00:48:32.247Z,20.50
2019-02-27T00:53:35.323Z,20.17
2019-02-27T00:58:38.509Z,19.52
2019-02-27T01:03:41.669Z,17.75
2019-02-27T01:08:45.190Z,19.10
2019-02-27T01:13:48.393Z,18.12
2019-02-27T01:18:51.363Z,20.02
2019-02-27T01:23:54.648Z,16.62
2019-02-27T01:28:57.648Z,17.60
2019-02-27T01:34:00.721Z,16.12
2019-02-27T01:39:09.012Z,16.10
2019-02-27T01:44:13.702Z,16.87
2019-02-27T01:49:16.816Z,17.15
2019-02-27T01:54:20.075Z,17.98
2019-02-27T01:59:23.439Z,16.93
2019-02-27T02:04:26.685Z,16.80
2019-02-27T02:09:35.893Z,17.12
2019-02-27T02:15:16.834Z,19.00
2019-02-27T02:20:46.671Z,17.82
2019-02-27T02:26:23.727Z,17.53
2019-02-27T02:32:04.976Z,17.30
2019-02-27T02:38:14.213Z,19.45
2019-02-27T02:44:36.634Z,17.82
2019-02-27T02:50:29.201Z,16.42
2019-02-27T02:56:24.967Z,18.57
2019-02-27T03:01:57.819Z,18.48
2019-02-27T03:07:50.087Z,17.50
2019-02-27T03:13:45.779Z,17.17
2019-02-27T03:19:41.727Z,16.65
2019-02-27T03:25:40.112Z,16.48
2019-02-27T03:31:39.180Z,16.57
2019-02-27T03:37:21.504Z,16.30
2019-02-27T03:43:24.297Z,16.45
2019-02-27T03:49:17.040Z,16.82
2019-02-27T03:54:45.478Z,18.82
2019-02-27T04:00:52.593Z,16.42
2019-02-27T04:07:14.616Z,16.42
2019-02-27T04:12:17.662Z,16.73
2019-02-27T04:17:26.921Z,16.52
2019-02-27T04:22:29.979Z,15.63
2019-02-27T04:27:32.906Z,15.20
2019-02-27T04:32:35.929Z,15.05
2019-02-27T04:37:39.059Z,14.58
2019-02-27T04:42:42.041Z,13.80
2019-02-27T04:47:44.988Z,12.03
2019-02-27T04:52:48.072Z,13.68
2019-02-27T04:57:51.117Z,13.00
2019-02-27T05:02:54.178Z,12.10
2019-02-27T05:07:57.387Z,12.58
2019-02-27T05:13:00.386Z,13.22
2019-02-27T05:18:03.507Z,12.65
2019-02-27T05:23:06.481Z,11.55
2019-02-27T05:28:09.549Z,13.15
2019-02-27T05:33:12.608Z,11.70
2019-02-27T05:38:15.801Z,11.80
2019-02-27T05:43:18.795Z,12.55
2019-02-27T05:48:21.886Z,10.63
2019-02-27T05:53:24.891Z,14.58
2019-02-27T05:58:28.079Z,14.38
2019-02-27T06:03:31.074Z,16.07
2019-02-27T06:08:36.694Z,15.85
2019-02-27T06:13:39.589Z,17.10
2019-02-27T06:18:43.071Z,18.98
2019-02-27T06:23:46.119Z,20.40
2019-02-27T06:28:49.226Z,16.77
2019-02-27T06:33:52.326Z,16.10
2019-02-27T06:39:00.150Z,16.27
2019-02-27T06:44:01.513Z,16.77
2019-02-27T06:49:05.777Z,15.08
2019-02-27T06:54:08.968Z,15.40
2019-02-27T06:59:11.955Z,15.55
2019-02-27T07:04:15.047Z,17.25
2019-02-27T07:09:18.079Z,13.08
2019-02-27T07:14:21.409Z,15.63
2019-02-27T07:19:24.392Z,18.17
2019-02-27T07:24:27.445Z,14.98
2019-02-27T07:29:30.454Z,14.58
2019-02-27T07:34:33.437Z,12.82
2019-02-27T07:39:36.400Z,15.50
2019-02-27T07:44:39.554Z,15.08
2019-02-27T07:49:42.591Z,14.83
2019-02-27T07:54:45.953Z,15.65
2019-02-27T07:59:49.095Z,15.55
2019-02-27T08:04:54.724Z,15.67
2019-02-27T08:09:57.360Z,16.48
2019-02-27T08:15:00.336Z,14.07
2019-02-27T08:20:04.045Z,14.30
2019-02-27T08:25:08.791Z,13.98
2019-02-27T08:30:15.658Z,12.60
2019-02-27T08:35:18.700Z,10.72
2019-02-27T08:40:24.356Z,13.63
2019-02-27T08:45:27.111Z,11.53
2019-02-27T08:50:31.765Z,15.80
2019-02-27T08:55:39.024Z,17.92
2019-02-27T09:00:40.499Z,19.57
2019-02-27T09:05:43.545Z,19.40
2019-02-27T09:10:46.588Z,19.07
2019-02-27T09:15:49.541Z,14.83
2019-02-27T09:20:53.532Z,17.10
2019-02-27T09:25:57.645Z,20.43
2019-02-27T09:31:04.298Z,21.37
2019-02-27T09:36:08.037Z,26.85
2019-02-27T09:41:12.406Z,26.03
2019-02-27T09:46:19.297Z,18.75
2019-02-27T09:51:22.179Z,27.70
2019-02-27T09:56:29.219Z,25.17
2019-02-27T10:01:34.163Z,26.90
2019-02-27T10:06:35.850Z,24.32
2019-02-27T10:11:38.800Z,25.65
2019-02-27T10:16:41.856Z,24.92
2019-02-27T10:21:45.386Z,25.68
2019-02-27T10:26:48.505Z,23.98
2019-02-27T10:31:51.492Z,16.35
2019-02-27T10:36:54.664Z,24.43
2019-02-27T10:41:57.726Z,26.42
2019-02-27T10:47:00.841Z,21.87
2019-02-27T10:52:03.924Z,23.90
2019-02-27T10:57:06.944Z,26.57
2019-02-27T11:02:12.519Z,16.55
2019-02-27T11:07:15.903Z,17.77
2019-02-27T11:12:19.826Z,15.98
2019-02-27T11:17:22.767Z,18.77
2019-02-27T11:22:25.753Z,12.80
2019-02-27T11:27:28.775Z,17.40
2019-02-27T11:32:31.764Z,15.28
2019-02-27T11:37:34.982Z,12.80
2019-02-27T11:42:37.957Z,14.28
2019-02-27T11:47:45.075Z,13.93
2019-02-27T11:52:49.058Z,13.68
2019-02-27T11:57:51.283Z,13.40
2019-02-27T12:02:54.283Z,11.70
2019-02-27T12:07:57.516Z,10.68
2019-02-27T12:13:01.302Z,8.28
2019-02-27T12:18:04.882Z,10.05
2019-02-27T12:23:10.086Z,10.25
2019-02-27T12:28:15.231Z,9.60
2019-02-27T12:33:18.312Z,9.77
2019-02-27T12:38:21.368Z,11.12
2019-02-27T12:43:24.427Z,14.38
2019-02-27T12:48:27.419Z,12.50
2019-02-27T12:53:30.517Z,11.75
2019-02-27T12:58:33.601Z,12.88
2019-02-27T13:03:36.719Z,11.38
2019-02-27T13:08:39.856Z,12.45
2019-02-27T13:13:43.280Z,14.70
2019-02-27T13:18:46.588Z,15.23
2019-02-27T13:23:49.633Z,13.53
2019-02-27T13:28:52.973Z,15.48
2019-02-27T13:33:56.290Z,15.98
2019-02-27T13:38:59.490Z,15.88
2019-02-27T13:44:02.697Z,16.17
2019-02-27T13:49:05.643Z,15.98
2019-02-27T13:54:09.012Z,20.97
2019-02-27T13:59:12.065Z,21.10
2019-02-27T14:04:15.118Z,17.87
2019-02-27T14:09:19.088Z,16.62
2019-02-27T14:14:22.461Z,18.45
2019-02-27T14:19:25.583Z,20.32
2019-02-27T14:24:28.656Z,20.32
2019-02-27T14:29:32.034Z,17.87
2019-02-27T14:34:35.451Z,20.08
2019-02-27T14:39:38.555Z,18.40
2019-02-27T14:44:41.570Z,18.55
2019-02-27T14:49:44.644Z,17.30
2019-02-27T14:54:47.957Z,19.35
2019-02-27T14:59:51.293Z,18.82
2019-02-27T15:04:54.389Z,23.20
2019-02-27T15:09:57.474Z,20.35
2019-02-27T15:15:00.450Z,22.82
2019-02-27T15:20:05.617Z,19.20
2019-02-27T15:25:11.655Z,15.05
2019-02-27T15:30:18.076Z,19.47
2019-02-27T15:35:22.193Z,24.18
2019-02-27T15:40:28.565Z,20.70
2019-02-27T15:45:30.992Z,19.00
2019-02-27T15:50:34.208Z,16.50
2019-02-27T15:55:37.958Z,15.35
2019-02-27T16:00:41.076Z,14.00
2019-02-27T16:05:44.171Z,12.50
2019-02-27T16:10:54.530Z,14.58
2019-02-27T16:15:52.520Z,13.58
2019-02-27T16:20:55.969Z,12.35
2019-02-27T16:25:58.965Z,11.55
2019-02-27T16:31:05.911Z,13.20
2019-02-27T16:36:07.433Z,12.23
2019-02-27T16:41:10.956Z,11.78
2019-02-27T16:46:14.098Z,11.53
2019-02-27T16:51:17.298Z,10.75
2019-02-27T16:56:20.471Z,13.40
2019-02-27T17:01:29.174Z,15.38
2019-02-27T17:06:29.173Z,13.38
2019-02-27T17:11:33.212Z,15.63
2019-02-27T17:16:38.421Z,15.10
2019-02-27T17:21:41.769Z,15.13
2019-02-27T17:26:46.423Z,14.78
2019-02-27T17:31:52.639Z,16.23
2019-02-27T17:36:54.847Z,12.78
2019-02-27T17:41:57.929Z,14.55
2019-02-27T17:47:00.974Z,17.73
2019-02-27T17:52:11.092Z,14.33
2019-02-27T17:57:09.213Z,16.02
2019-02-27T18:02:12.386Z,14.87
2019-02-27T18:07:15.780Z,14.60
2019-02-27T18:12:18.837Z,18.37
2019-02-27T18:17:21.959Z,14.87
2019-02-27T18:22:24.927Z,16.95
2019-02-27T18:27:28.019Z,15.35
2019-02-27T18:32:31.013Z,16.85
2019-02-27T18:37:33.995Z,15.80
2019-02-27T18:42:37.028Z,16.50
2019-02-27T18:47:40.115Z,15.10
2019-02-27T18:52:43.388Z,14.30
2019-02-27T18:57:47.598Z,12.73
2019-02-27T19:02:53.260Z,13.50
2019-02-27T19:07:56.320Z,16.23
2019-02-27T19:13:00.767Z,17.77
2019-02-27T19:18:06.543Z,17.07
2019-02-27T19:23:10.232Z,18.57
2019-02-27T19:28:13.323Z,19.85
2019-02-27T19:33:16.435Z,20.23
2019-02-27T19:38:19.452Z,20.17
2019-02-27T19:43:22.593Z,20.12
2019-02-27T19:48:26.256Z,19.60
2019-02-27T19:53:30.482Z,21.77
2019-02-27T19:58:33.678Z,19.67
2019-02-27T20:03:36.980Z,21.20
2019-02-27T20:08:44.392Z,22.77
2019-02-27T20:13:45.140Z,22.85
2019-02-27T20:18:54.780Z,24.15
2019-02-27T20:23:53.344Z,24.95
2019-02-27T20:28:56.325Z,25.17
2019-02-27T20:33:59.301Z,25.77
2019-02-27T20:39:04.168Z,21.05
2019-02-27T20:44:07.167Z,26.57
2019-02-27T20:49:10.466Z,24.25
2019-02-27T20:54:15.430Z,26.77
2019-02-27T20:59:18.957Z,25.92
2019-02-27T21:04:22.124Z,28.87
2019-02-27T21:09:25.269Z,25.65
2019-02-27T21:14:28.269Z,24.15
2019-02-27T21:19:33.854Z,23.77
2019-02-27T21:24:37.334Z,24.87
2019-02-27T21:29:43.380Z,26.57
2019-02-27T21:34:46.275Z,24.30
2019-02-27T21:39:49.331Z,22.45
2019-02-27T21:44:52.547Z,21.73
2019-02-27T21:49:55.522Z,23.35
2019-02-27T21:54:58.500Z,22.67
2019-02-27T22:00:01.493Z,23.90
2019-02-27T22:05:05.434Z,19.87
2019-02-27T22:10:10.298Z,21.68
2019-02-27T22:15:25.871Z,23.35
2019-02-27T22:20:28.823Z,25.90
2019-02-27T22:25:31.877Z,24.47
2019-02-27T22:30:34.948Z,21.70
2019-02-27T22:35:38.614Z,23.70
2019-02-27T22:40:41.881Z,23.57
2019-02-27T22:45:44.841Z,24.43
2019-02-27T22:50:47.996Z,26.35
2019-02-27T22:55:51.047Z,27.27
2019-02-27T23:01:11.127Z,25.65
2019-02-27T23:06:14.378Z,21.95
2019-02-27T23:11:18.199Z,21.48
2019-02-27T23:16:21.227Z,20.85
2019-02-27T23:21:26.638Z,19.12
2019-02-27T23:26:48.202Z,21.82
2019-02-27T23:31:51.148Z,20.53
2019-02-27T23:36:55.828Z,19.37
2019-02-27T23:41:59.425Z,19.73
2019-02-27T23:47:02.536Z,21.05
2019-02-27T23:52:05.510Z,19.10
2019-02-27T23:57:08.649Z,20.30
